createdAt,value
2022-08-01T00:00:30.021Z,18.23
2022-08-01T00:01:33.195Z,18.22
2022-08-01T00:02:37.186Z,18.23
2022-08-01T00:03:40.417Z,18.23
2022-08-01T00:04:42.450Z,18.22
2022-08-01T00:05:46.403Z,18.22
2022-08-01T00:06:48.539Z,18.23
2022-08-01T00:07:51.613Z,18.22
2022-08-01T00:08:53.664Z,18.22
2022-08-01T00:09:56.743Z,18.22
2022-08-01T00:11:02.568Z,18.21
2022-08-01T00:12:07.060Z,18.21
2022-08-01T00:13:10.468Z,18.20
2022-08-01T00:14:13.873Z,18.20
2022-08-01T00:15:17.570Z,18.20
2022-08-01T00:16:23.558Z,18.21
2022-08-01T00:17:25.646Z,18.21
2022-08-01T00:18:30.115Z,18.20
2022-08-01T00:19:32.643Z,18.22
2022-08-01T00:20:35.733Z,18.21
2022-08-01T00:21:37.767Z,18.20
2022-08-01T00:22:40.948Z,18.21
2022-08-01T00:23:42.993Z,18.20
2022-08-01T00:24:46.009Z,18.21
2022-08-01T00:25:48.070Z,18.21
2022-08-01T00:26:51.150Z,18.21
2022-08-01T00:27:54.455Z,18.20
2022-08-01T00:28:57.581Z,18.21
2022-08-01T00:30:10.957Z,18.22
2022-08-01T00:31:15.930Z,18.20
2022-08-01T00:32:17.945Z,18.21
2022-08-01T00:33:20.966Z,18.21
2022-08-01T00:34:24.398Z,18.20
2022-08-01T00:35:27.447Z,18.19
2022-08-01T00:36:29.663Z,18.20
2022-08-01T00:37:32.948Z,18.21
2022-08-01T00:38:35.349Z,18.20
2022-08-01T00:39:38.395Z,18.21
2022-08-01T00:40:40.432Z,18.20
2022-08-01T00:41:43.462Z,18.19
2022-08-01T00:42:45.634Z,18.18
2022-08-01T00:43:48.596Z,18.19
2022-08-01T00:44:50.680Z,18.18
2022-08-01T00:45:53.726Z,18.18
2022-08-01T00:46:55.756Z,18.17
2022-08-01T00:47:58.772Z,18.18
2022-08-01T00:49:01.277Z,18.15
2022-08-01T00:50:07.775Z,18.18
2022-08-01T00:51:10.057Z,18.18
2022-08-01T00:52:13.509Z,18.17
2022-08-01T00:53:18.596Z,18.16
2022-08-01T00:54:22.281Z,18.15
2022-08-01T00:55:25.042Z,18.15
2022-08-01T00:56:29.581Z,18.15
2022-08-01T00:58:01.429Z,18.15
2022-08-01T00:58:55.706Z,18.15
2022-08-01T00:59:58.686Z,18.15
2022-08-01T01:01:03.868Z,18.15
2022-08-01T01:02:14.839Z,18.16
2022-08-01T01:03:18.867Z,18.15
2022-08-01T01:04:21.185Z,18.16
2022-08-01T01:05:25.684Z,18.16
2022-08-01T01:06:44.011Z,18.15
2022-08-01T01:07:51.603Z,18.16
2022-08-01T01:09:09.122Z,18.16
2022-08-01T01:10:16.571Z,18.14
2022-08-01T01:11:27.576Z,18.14
2022-08-01T01:12:37.305Z,18.13
2022-08-01T01:13:48.428Z,18.13
2022-08-01T01:15:02.544Z,18.14
2022-08-01T01:16:11.008Z,18.14
2022-08-01T01:17:17.100Z,18.14
2022-08-01T01:18:39.861Z,18.14
2022-08-01T01:19:48.678Z,18.14
2022-08-01T01:20:59.998Z,18.14
2022-08-01T01:22:19.063Z,18.14
2022-08-01T01:23:36.556Z,18.15
2022-08-01T01:24:46.012Z,18.13
2022-08-01T01:26:03.411Z,18.14
2022-08-01T01:27:17.364Z,18.12
2022-08-01T01:28:29.278Z,18.12
2022-08-01T01:30:00.460Z,18.12
2022-08-01T01:31:02.007Z,18.11
2022-08-01T01:32:08.509Z,18.09
2022-08-01T01:33:13.588Z,18.10
2022-08-01T01:34:19.339Z,18.09
2022-08-01T01:35:25.730Z,18.08
2022-08-01T01:36:30.097Z,18.07
2022-08-01T01:37:34.111Z,18.06
2022-08-01T01:38:42.945Z,18.07
2022-08-01T01:39:48.900Z,18.06
2022-08-01T01:40:59.138Z,18.05
2022-08-01T01:42:03.938Z,18.04
2022-08-01T01:43:10.728Z,18.04
2022-08-01T01:44:15.327Z,18.03
2022-08-01T01:45:19.626Z,18.02
2022-08-01T01:46:27.977Z,18.04
2022-08-01T01:47:32.111Z,18.02
2022-08-01T01:48:36.602Z,18.01
2022-08-01T01:49:42.012Z,18.03
2022-08-01T01:50:45.838Z,18.02
2022-08-01T01:52:00.789Z,18.02
2022-08-01T01:53:07.913Z,18.00
2022-08-01T01:54:17.343Z,17.99
2022-08-01T01:55:23.225Z,17.99
2022-08-01T01:56:27.516Z,17.99
2022-08-01T01:57:32.783Z,17.97
2022-08-01T01:58:39.906Z,17.98
2022-08-01T01:59:44.140Z,17.97
2022-08-01T02:00:50.352Z,17.96
2022-08-01T02:02:05.429Z,17.97
2022-08-01T02:03:10.121Z,17.98
2022-08-01T02:04:14.725Z,17.98
2022-08-01T02:05:17.104Z,17.98
2022-08-01T02:06:20.624Z,17.97
2022-08-01T02:07:25.412Z,17.98
2022-08-01T02:08:31.737Z,17.98
2022-08-01T02:09:36.728Z,17.98
2022-08-01T02:10:41.331Z,17.97
2022-08-01T02:12:07.585Z,17.98
2022-08-01T02:13:08.381Z,17.97
2022-08-01T02:14:11.951Z,17.96
2022-08-01T02:15:17.350Z,17.97
2022-08-01T02:16:23.968Z,17.96
2022-08-01T02:17:28.728Z,17.97
2022-08-01T02:18:31.275Z,17.95
2022-08-01T02:19:38.239Z,17.95
2022-08-01T02:20:40.929Z,17.95
2022-08-01T02:21:49.814Z,17.95
2022-08-01T02:22:56.905Z,17.93
2022-08-01T02:24:06.145Z,17.94
2022-08-01T02:25:15.898Z,17.93
2022-08-01T02:26:20.530Z,17.93
2022-08-01T02:27:26.880Z,17.92
2022-08-01T02:28:33.334Z,17.88
2022-08-01T02:29:41.925Z,17.92
2022-08-01T02:30:48.801Z,17.90
2022-08-01T02:31:56.370Z,17.88
2022-08-01T02:33:03.075Z,17.88
2022-08-01T02:34:08.744Z,17.87
2022-08-01T02:35:14.468Z,17.85
2022-08-01T02:36:30.452Z,17.85
2022-08-01T02:37:38.659Z,17.82
2022-08-01T02:38:47.031Z,17.83
2022-08-01T02:39:53.101Z,17.84
2022-08-01T02:40:58.924Z,17.81
2022-08-01T02:42:08.500Z,17.82
2022-08-01T02:43:13.373Z,17.80
2022-08-01T02:44:21.322Z,17.80
2022-08-01T02:45:26.645Z,17.81
2022-08-01T02:46:37.194Z,17.80
2022-08-01T02:47:43.389Z,17.81
2022-08-01T02:48:48.005Z,17.79
2022-08-01T02:49:53.937Z,17.79
2022-08-01T02:50:59.506Z,17.78
2022-08-01T02:52:06.415Z,17.78
2022-08-01T02:53:11.295Z,17.78
2022-08-01T02:54:17.528Z,17.78
2022-08-01T02:55:20.955Z,17.77
2022-08-01T02:56:35.617Z,17.75
2022-08-01T02:57:51.766Z,17.75
2022-08-01T02:58:56.411Z,17.74
2022-08-01T03:00:00.051Z,17.73
2022-08-01T03:01:04.050Z,17.73
2022-08-01T03:02:08.853Z,17.73
2022-08-01T03:03:15.424Z,17.72
2022-08-01T03:04:19.667Z,17.72
2022-08-01T03:05:23.524Z,17.72
2022-08-01T03:06:27.673Z,17.73
2022-08-01T03:07:34.533Z,17.73
2022-08-01T03:08:38.605Z,17.74
2022-08-01T03:09:44.384Z,17.75
2022-08-01T03:10:47.978Z,17.74
2022-08-01T03:11:52.731Z,17.75
2022-08-01T03:12:56.182Z,17.77
2022-08-01T03:14:03.773Z,17.77
2022-08-01T03:15:07.334Z,17.76
2022-08-01T03:16:15.555Z,17.77
2022-08-01T03:17:19.458Z,17.76
2022-08-01T03:18:26.822Z,17.78
2022-08-01T03:19:31.377Z,17.77
2022-08-01T03:20:35.773Z,17.77
2022-08-01T03:21:39.504Z,17.78
2022-08-01T03:22:44.753Z,17.77
2022-08-01T03:23:53.421Z,17.76
2022-08-01T03:25:00.243Z,17.76
2022-08-01T03:26:03.419Z,17.76
2022-08-01T03:27:07.863Z,17.76
2022-08-01T03:28:14.339Z,17.76
2022-08-01T03:29:20.928Z,17.75
2022-08-01T03:30:24.817Z,17.75
2022-08-01T03:31:28.777Z,17.75
2022-08-01T03:32:31.767Z,17.75
2022-08-01T03:33:36.312Z,17.74
2022-08-01T03:34:39.392Z,17.75
2022-08-01T03:35:47.777Z,17.75
2022-08-01T03:36:57.722Z,17.75
2022-08-01T03:38:17.453Z,17.75
2022-08-01T03:39:22.660Z,17.73
2022-08-01T03:40:29.390Z,17.73
2022-08-01T03:41:39.904Z,17.73
2022-08-01T03:42:46.699Z,17.73
2022-08-01T03:43:56.591Z,17.72
2022-08-01T03:45:04.934Z,17.72
2022-08-01T03:46:12.087Z,17.72
2022-08-01T03:47:17.374Z,17.71
2022-08-01T03:48:23.525Z,17.72
2022-08-01T03:49:32.949Z,17.71
2022-08-01T03:50:37.957Z,17.72
2022-08-01T03:51:40.671Z,17.71
2022-08-01T03:52:47.030Z,17.71
2022-08-01T03:53:51.365Z,17.70
2022-08-01T03:54:57.591Z,17.70
2022-08-01T03:56:02.082Z,17.71
2022-08-01T03:57:07.162Z,17.71
2022-08-01T03:58:11.604Z,17.72
2022-08-01T03:59:16.751Z,17.71
2022-08-01T04:00:19.610Z,17.73
2022-08-01T04:01:23.381Z,17.74
2022-08-01T04:02:27.385Z,17.74
2022-08-01T04:03:30.717Z,17.75
2022-08-01T04:04:34.949Z,17.76
2022-08-01T04:05:38.117Z,17.76
2022-08-01T04:06:40.404Z,17.78
2022-08-01T04:07:48.331Z,17.79
2022-08-01T04:08:56.694Z,17.79
2022-08-01T04:10:00.338Z,17.79
2022-08-01T04:11:02.512Z,17.81
2022-08-01T04:12:11.971Z,17.79
2022-08-01T04:13:14.592Z,17.80
2022-08-01T04:14:17.730Z,17.80
2022-08-01T04:15:21.239Z,17.80
2022-08-01T04:16:24.553Z,17.81
2022-08-01T04:17:26.505Z,17.82
2022-08-01T04:18:29.595Z,17.83
2022-08-01T04:20:04.005Z,17.84
2022-08-01T04:21:08.397Z,17.84
2022-08-01T04:22:11.600Z,17.85
2022-08-01T04:23:17.206Z,17.85
2022-08-01T04:24:20.749Z,17.85
2022-08-01T04:25:28.625Z,17.85
2022-08-01T04:26:33.210Z,17.86
2022-08-01T04:27:50.765Z,17.85
2022-08-01T04:28:56.889Z,17.85
2022-08-01T04:30:01.088Z,17.86
2022-08-01T04:31:08.270Z,17.86
2022-08-01T04:32:13.841Z,17.86
2022-08-01T04:33:17.810Z,17.88
2022-08-01T04:34:23.956Z,17.87
2022-08-01T04:36:01.477Z,17.86
2022-08-01T04:36:56.569Z,17.85
2022-08-01T04:38:00.428Z,17.85
2022-08-01T04:39:04.490Z,17.84
2022-08-01T04:40:08.175Z,17.78
2022-08-01T04:41:13.220Z,17.83
2022-08-01T04:42:16.558Z,17.81
2022-08-01T04:43:20.359Z,17.79
2022-08-01T04:44:22.714Z,17.77
2022-08-01T04:45:26.511Z,17.75
2022-08-01T04:46:29.797Z,17.74
2022-08-01T04:47:33.720Z,17.72
2022-08-01T04:48:38.351Z,17.72
2022-08-01T04:49:48.593Z,17.69
2022-08-01T04:50:52.513Z,17.69
2022-08-01T04:51:58.653Z,17.68
2022-08-01T04:53:04.046Z,17.67
2022-08-01T04:54:08.379Z,17.65
2022-08-01T04:55:12.010Z,17.66
2022-08-01T04:56:14.502Z,17.65
2022-08-01T04:57:17.632Z,17.63
2022-08-01T04:58:19.713Z,17.63
2022-08-01T04:59:39.993Z,17.62
2022-08-01T05:00:43.288Z,17.61
2022-08-01T05:01:49.965Z,17.61
2022-08-01T05:02:53.105Z,17.60
2022-08-01T05:03:55.124Z,17.60
2022-08-01T05:04:58.183Z,17.60
2022-08-01T05:06:00.259Z,17.59
2022-08-01T05:07:05.896Z,17.59
2022-08-01T05:08:08.231Z,17.59
2022-08-01T05:09:11.297Z,17.59
2022-08-01T05:10:14.313Z,17.59
2022-08-01T05:11:16.328Z,17.58
2022-08-01T05:12:25.537Z,17.59
2022-08-01T05:13:27.602Z,17.60
2022-08-01T05:14:32.940Z,17.60
2022-08-01T05:15:37.664Z,17.61
2022-08-01T05:16:39.747Z,17.57
2022-08-01T05:17:44.155Z,17.61
2022-08-01T05:18:46.178Z,17.60
2022-08-01T05:19:50.743Z,17.62
2022-08-01T05:20:52.922Z,17.63
2022-08-01T05:22:01.945Z,17.64
2022-08-01T05:23:05.519Z,17.65
2022-08-01T05:24:08.711Z,17.67
2022-08-01T05:25:10.896Z,17.69
2022-08-01T05:26:16.599Z,17.70
2022-08-01T05:27:18.664Z,17.70
2022-08-01T05:28:22.382Z,17.75
2022-08-01T05:29:24.853Z,17.76
2022-08-01T05:30:27.931Z,17.78
2022-08-01T05:31:30.070Z,17.79
2022-08-01T05:32:33.049Z,17.79
2022-08-01T05:33:35.050Z,17.81
2022-08-01T05:34:38.077Z,17.80
2022-08-01T05:35:47.870Z,17.80
2022-08-01T05:36:56.709Z,17.83
2022-08-01T05:37:59.930Z,17.86
2022-08-01T05:39:04.444Z,17.86
2022-08-01T05:40:07.310Z,17.89
2022-08-01T05:41:10.362Z,17.84
2022-08-01T05:42:13.384Z,17.91
2022-08-01T05:43:15.339Z,17.93
2022-08-01T05:44:18.421Z,17.94
2022-08-01T05:45:20.640Z,17.95
2022-08-01T05:46:23.713Z,17.95
2022-08-01T05:47:30.668Z,17.95
2022-08-01T05:48:32.706Z,17.95
2022-08-01T05:49:35.786Z,17.94
2022-08-01T05:50:37.908Z,17.95
2022-08-01T05:51:43.873Z,17.94
2022-08-01T05:52:45.886Z,17.94
2022-08-01T05:53:48.892Z,17.94
2022-08-01T05:54:53.283Z,17.94
2022-08-01T05:55:55.361Z,17.93
2022-08-01T05:57:02.440Z,17.94
2022-08-01T05:58:04.474Z,17.94
2022-08-01T05:59:07.606Z,17.93
2022-08-01T06:00:11.037Z,17.88
2022-08-01T06:01:17.132Z,17.92
2022-08-01T06:02:19.201Z,17.93
2022-08-01T06:03:22.339Z,17.93
2022-08-01T06:04:24.392Z,17.95
2022-08-01T06:05:27.559Z,17.94
2022-08-01T06:06:30.588Z,17.93
2022-08-01T06:07:32.614Z,17.95
2022-08-01T06:08:35.630Z,17.95
2022-08-01T06:09:37.624Z,17.95
2022-08-01T06:10:42.006Z,17.96
2022-08-01T06:11:44.975Z,17.96
2022-08-01T06:12:47.035Z,17.95
2022-08-01T06:13:50.127Z,17.96
2022-08-01T06:14:52.179Z,17.94
2022-08-01T06:15:55.115Z,17.94
2022-08-01T06:16:57.122Z,17.95
2022-08-01T06:18:00.674Z,17.94
2022-08-01T06:19:03.722Z,17.93
2022-08-01T06:20:07.450Z,17.92
2022-08-01T06:21:10.544Z,17.91
2022-08-01T06:22:12.577Z,17.91
2022-08-01T06:23:31.479Z,17.91
2022-08-01T06:24:35.997Z,17.91
2022-08-01T06:25:37.963Z,17.91
2022-08-01T06:26:42.345Z,17.90
2022-08-01T06:27:44.345Z,17.90
2022-08-01T06:28:47.357Z,17.90
2022-08-01T06:29:51.339Z,17.89
2022-08-01T06:30:57.248Z,17.81
2022-08-01T06:32:01.057Z,17.90
2022-08-01T06:33:03.995Z,17.90
2022-08-01T06:34:07.503Z,17.88
2022-08-01T06:35:10.005Z,17.88
2022-08-01T06:36:13.162Z,17.85
2022-08-01T06:37:15.615Z,17.85
2022-08-01T06:38:18.785Z,17.84
2022-08-01T06:39:21.010Z,17.83
2022-08-01T06:40:25.102Z,17.82
2022-08-01T06:41:28.144Z,17.82
2022-08-01T06:42:32.645Z,17.84
2022-08-01T06:43:39.821Z,17.83
2022-08-01T06:44:41.905Z,17.84
2022-08-01T06:45:44.982Z,17.85
2022-08-01T06:46:48.053Z,17.87
2022-08-01T06:47:50.760Z,17.90
2022-08-01T06:48:54.002Z,17.92
2022-08-01T06:49:56.252Z,17.93
2022-08-01T06:51:09.691Z,17.97
2022-08-01T06:52:11.700Z,18.00
2022-08-01T06:53:14.961Z,18.02
2022-08-01T06:54:18.108Z,18.05
2022-08-01T06:55:20.815Z,18.05
2022-08-01T06:56:23.848Z,18.12
2022-08-01T06:57:26.833Z,18.15
2022-08-01T06:58:31.600Z,18.19
2022-08-01T06:59:35.178Z,18.22
2022-08-01T07:00:37.224Z,18.23
2022-08-01T07:01:40.409Z,18.24
2022-08-01T07:02:42.536Z,18.26
2022-08-01T07:03:54.356Z,18.27
2022-08-01T07:05:01.123Z,18.28
2022-08-01T07:06:04.454Z,18.28
2022-08-01T07:07:06.560Z,18.30
2022-08-01T07:08:09.520Z,18.31
2022-08-01T07:09:14.363Z,18.35
2022-08-01T07:10:17.969Z,18.39
2022-08-01T07:11:20.419Z,18.41
2022-08-01T07:12:23.653Z,18.44
2022-08-01T07:13:26.008Z,18.47
2022-08-01T07:14:48.152Z,18.48
2022-08-01T07:15:50.149Z,18.46
2022-08-01T07:16:53.192Z,18.45
2022-08-01T07:17:57.936Z,18.43
2022-08-01T07:19:01.053Z,18.42
2022-08-01T07:20:03.783Z,18.31
2022-08-01T07:21:06.801Z,18.35
2022-08-01T07:22:23.463Z,18.29
2022-08-01T07:23:30.484Z,18.25
2022-08-01T07:24:37.198Z,18.21
2022-08-01T07:25:39.304Z,18.20
2022-08-01T07:26:55.082Z,18.19
2022-08-01T07:27:58.616Z,18.20
2022-08-01T07:29:01.591Z,18.21
2022-08-01T07:30:06.446Z,18.22
2022-08-01T07:31:09.449Z,18.24
2022-08-01T07:32:12.451Z,18.24
2022-08-01T07:33:15.483Z,18.27
2022-08-01T07:34:17.541Z,18.28
2022-08-01T07:35:20.789Z,18.32
2022-08-01T07:36:23.783Z,18.35
2022-08-01T07:37:44.319Z,18.37
2022-08-01T07:38:49.216Z,18.37
2022-08-01T07:39:51.298Z,18.40
2022-08-01T07:40:55.982Z,18.40
2022-08-01T07:42:07.979Z,18.41
2022-08-01T07:43:11.895Z,18.40
2022-08-01T07:44:13.934Z,18.36
2022-08-01T07:45:18.365Z,18.37
2022-08-01T07:46:20.350Z,18.34
2022-08-01T07:47:26.181Z,18.35
2022-08-01T07:48:30.053Z,18.34
2022-08-01T07:49:34.975Z,18.36
2022-08-01T07:50:42.381Z,18.38
2022-08-01T07:52:03.867Z,18.39
2022-08-01T07:53:07.775Z,18.41
2022-08-01T07:54:09.849Z,18.42
2022-08-01T07:55:16.593Z,18.46
2022-08-01T07:56:19.975Z,18.47
2022-08-01T07:57:22.057Z,18.48
2022-08-01T07:58:25.041Z,18.49
2022-08-01T07:59:27.165Z,18.50
2022-08-01T08:00:31.694Z,18.50
2022-08-01T08:01:33.779Z,18.51
2022-08-01T08:02:36.786Z,18.52
2022-08-01T08:03:38.865Z,18.53
2022-08-01T08:04:44.652Z,18.54
2022-08-01T08:05:59.889Z,18.52
2022-08-01T08:07:03.924Z,18.56
2022-08-01T08:08:06.844Z,18.53
2022-08-01T08:09:09.913Z,18.53
2022-08-01T08:10:13.001Z,18.51
2022-08-01T08:11:15.305Z,18.50
2022-08-01T08:12:18.347Z,18.51
2022-08-01T08:13:20.961Z,18.52
2022-08-01T08:14:32.487Z,18.53
2022-08-01T08:15:37.520Z,18.53
2022-08-01T08:16:40.754Z,18.54
2022-08-01T08:17:43.798Z,18.56
2022-08-01T08:18:52.370Z,18.60
2022-08-01T08:19:55.861Z,18.62
2022-08-01T08:20:57.935Z,18.67
2022-08-01T08:22:01.046Z,18.70
2022-08-01T08:23:41.207Z,18.73
2022-08-01T08:24:46.606Z,18.77
2022-08-01T08:25:49.933Z,18.78
2022-08-01T08:26:54.149Z,18.81
2022-08-01T08:27:57.864Z,18.82
2022-08-01T08:28:59.955Z,18.87
2022-08-01T08:30:03.042Z,18.90
2022-08-01T08:31:06.575Z,18.91
2022-08-01T08:32:10.914Z,18.93
2022-08-01T08:33:14.113Z,18.94
2022-08-01T08:34:16.516Z,18.94
2022-08-01T08:35:40.561Z,18.95
2022-08-01T08:36:47.800Z,18.96
2022-08-01T08:37:51.146Z,18.96
2022-08-01T08:38:58.056Z,19.02
2022-08-01T08:40:01.091Z,19.07
2022-08-01T08:41:03.422Z,19.07
2022-08-01T08:42:09.513Z,19.12
2022-08-01T08:43:12.252Z,19.15
2022-08-01T08:44:15.298Z,19.18
2022-08-01T08:45:19.084Z,19.19
2022-08-01T08:46:28.316Z,19.19
2022-08-01T08:47:34.802Z,19.23
2022-08-01T08:48:38.397Z,19.24
2022-08-01T08:49:44.969Z,19.24
2022-08-01T08:50:52.543Z,19.27
2022-08-01T08:51:59.878Z,19.27
2022-08-01T08:53:06.403Z,19.29
2022-08-01T08:54:11.537Z,19.30
2022-08-01T08:55:15.626Z,19.31
2022-08-01T08:56:18.235Z,19.34
2022-08-01T08:57:22.683Z,19.36
2022-08-01T08:58:31.724Z,19.37
2022-08-01T08:59:35.498Z,19.37
2022-08-01T09:00:37.515Z,19.37
2022-08-01T09:01:42.645Z,19.36
2022-08-01T09:02:46.088Z,19.36
2022-08-01T09:03:49.659Z,19.35
2022-08-01T09:04:53.369Z,19.35
2022-08-01T09:05:55.483Z,19.37
2022-08-01T09:06:58.577Z,19.37
2022-08-01T09:08:00.678Z,19.38
2022-08-01T09:09:04.068Z,19.41
2022-08-01T09:10:08.543Z,19.45
2022-08-01T09:11:10.833Z,19.49
2022-08-01T09:12:17.838Z,19.52
2022-08-01T09:13:20.960Z,19.54
2022-08-01T09:14:25.070Z,19.60
2022-08-01T09:15:39.153Z,19.65
2022-08-01T09:16:48.721Z,19.68
2022-08-01T09:17:51.247Z,19.72
2022-08-01T09:18:54.317Z,19.77
2022-08-01T09:19:59.235Z,19.82
2022-08-01T09:21:12.800Z,19.85
2022-08-01T09:22:19.609Z,19.88
2022-08-01T09:23:32.910Z,19.92
2022-08-01T09:24:36.945Z,19.95
2022-08-01T09:25:52.526Z,19.99
2022-08-01T09:26:57.024Z,19.99
2022-08-01T09:28:04.374Z,20.04
2022-08-01T09:29:10.361Z,20.09
2022-08-01T09:30:17.175Z,20.11
2022-08-01T09:31:21.807Z,20.15
2022-08-01T09:32:27.259Z,20.17
2022-08-01T09:33:48.127Z,20.20
2022-08-01T09:34:53.840Z,20.23
2022-08-01T09:35:57.129Z,20.24
2022-08-01T09:37:01.563Z,20.30
2022-08-01T09:38:17.685Z,20.34
2022-08-01T09:39:22.033Z,20.39
2022-08-01T09:40:24.041Z,20.46
2022-08-01T09:41:39.924Z,20.49
2022-08-01T09:42:43.440Z,20.52
2022-08-01T09:43:50.759Z,20.50
2022-08-01T09:44:55.010Z,20.47
2022-08-01T09:45:58.469Z,20.45
2022-08-01T09:47:07.790Z,20.44
2022-08-01T09:48:13.070Z,20.46
2022-08-01T09:49:16.235Z,20.49
2022-08-01T09:50:18.441Z,20.53
2022-08-01T09:51:59.219Z,20.60
2022-08-01T09:52:57.086Z,20.67
2022-08-01T09:54:00.260Z,20.73
2022-08-01T09:55:06.033Z,20.76
2022-08-01T09:56:12.166Z,20.79
2022-08-01T09:57:17.370Z,20.81
2022-08-01T09:58:58.503Z,20.75
2022-08-01T10:00:03.610Z,20.88
2022-08-01T10:01:14.230Z,20.90
2022-08-01T10:02:30.923Z,20.88
2022-08-01T10:03:34.360Z,20.88
2022-08-01T10:04:37.534Z,20.87
2022-08-01T10:05:43.868Z,20.90
2022-08-01T10:06:53.685Z,20.92
2022-08-01T10:07:59.920Z,20.95
2022-08-01T10:09:03.421Z,20.96
2022-08-01T10:10:14.556Z,20.98
2022-08-01T10:11:17.892Z,20.97
2022-08-01T10:12:22.353Z,20.98
2022-08-01T10:13:24.575Z,20.89
2022-08-01T10:14:41.343Z,21.03
2022-08-01T10:15:44.573Z,21.08
2022-08-01T10:16:57.379Z,21.08
2022-08-01T10:18:16.640Z,21.14
2022-08-01T10:19:33.535Z,21.12
2022-08-01T10:20:35.732Z,21.05
2022-08-01T10:21:58.549Z,20.96
2022-08-01T10:23:06.164Z,20.91
2022-08-01T10:24:11.334Z,20.89
2022-08-01T10:25:17.675Z,20.91
2022-08-01T10:26:42.055Z,20.94
2022-08-01T10:27:48.236Z,20.96
2022-08-01T10:28:53.424Z,20.99
2022-08-01T10:30:05.450Z,21.02
2022-08-01T10:31:13.228Z,21.05
2022-08-01T10:32:19.413Z,21.08
2022-08-01T10:33:51.476Z,21.11
2022-08-01T10:34:51.396Z,21.14
2022-08-01T10:35:53.364Z,21.17
2022-08-01T10:36:56.494Z,21.21
2022-08-01T10:37:59.813Z,21.26
2022-08-01T10:39:03.008Z,21.30
2022-08-01T10:40:29.370Z,21.34
2022-08-01T10:41:31.832Z,21.39
2022-08-01T10:42:34.985Z,21.41
2022-08-01T10:43:38.477Z,21.42
2022-08-01T10:44:41.401Z,21.41
2022-08-01T10:45:45.744Z,21.42
2022-08-01T10:46:54.962Z,21.44
2022-08-01T10:48:05.051Z,21.49
2022-08-01T10:49:12.982Z,21.53
2022-08-01T10:50:26.079Z,21.59
2022-08-01T10:51:52.467Z,21.65
2022-08-01T10:53:16.144Z,21.72
2022-08-01T10:54:27.071Z,21.75
2022-08-01T10:55:29.410Z,21.78
2022-08-01T10:56:42.012Z,21.81
2022-08-01T10:57:52.651Z,21.81
2022-08-01T10:59:06.395Z,21.82
2022-08-01T11:00:11.185Z,21.82
2022-08-01T11:01:19.783Z,21.82
2022-08-01T11:02:32.139Z,21.83
2022-08-01T11:03:56.004Z,21.83
2022-08-01T11:05:09.494Z,21.86
2022-08-01T11:06:18.862Z,21.90
2022-08-01T11:07:26.113Z,21.93
2022-08-01T11:08:39.080Z,21.97
2022-08-01T11:09:49.546Z,21.97
2022-08-01T11:11:01.537Z,22.02
2022-08-01T11:12:08.168Z,22.02
2022-08-01T11:13:17.179Z,22.01
2022-08-01T11:14:26.184Z,22.02
2022-08-01T11:15:31.305Z,22.01
2022-08-01T11:16:34.801Z,22.04
2022-08-01T11:17:42.416Z,22.04
2022-08-01T11:18:52.679Z,22.08
2022-08-01T11:20:15.064Z,22.09
2022-08-01T11:21:58.094Z,22.10
2022-08-01T11:23:26.362Z,22.13
2022-08-01T11:25:01.304Z,22.16
2022-08-01T11:26:28.794Z,22.18
2022-08-01T11:27:33.944Z,22.17
2022-08-01T11:28:36.621Z,22.19
2022-08-01T11:29:40.099Z,22.20
2022-08-01T11:30:42.782Z,22.20
2022-08-01T11:31:45.886Z,22.19
2022-08-01T11:33:10.503Z,22.17
2022-08-01T11:34:13.995Z,22.15
2022-08-01T11:35:19.020Z,22.16
2022-08-01T11:36:42.592Z,22.17
2022-08-01T11:37:46.030Z,22.20
2022-08-01T11:38:49.450Z,22.22
2022-08-01T11:40:16.759Z,22.24
2022-08-01T11:41:37.428Z,22.24
2022-08-01T11:42:42.405Z,22.26
2022-08-01T11:43:57.758Z,22.28
2022-08-01T11:45:02.059Z,22.30
2022-08-01T11:46:04.921Z,22.34
2022-08-01T11:47:11.654Z,22.35
2022-08-01T11:48:19.689Z,22.35
2022-08-01T11:49:33.504Z,22.42
2022-08-01T11:50:38.017Z,22.48
2022-08-01T11:51:42.472Z,22.51
2022-08-01T11:52:46.595Z,22.57
2022-08-01T11:53:50.559Z,22.59
2022-08-01T11:54:57.996Z,22.63
2022-08-01T11:56:00.909Z,22.67
2022-08-01T11:57:06.786Z,22.71
2022-08-01T11:58:22.306Z,22.75
2022-08-01T11:59:33.971Z,22.77
2022-08-01T12:00:43.956Z,22.79
2022-08-01T12:01:49.150Z,22.80
2022-08-01T12:02:59.980Z,22.82
2022-08-01T12:04:02.667Z,22.84
2022-08-01T12:05:08.268Z,22.84
2022-08-01T12:06:10.995Z,22.85
2022-08-01T12:07:16.199Z,22.85
2022-08-01T12:08:27.265Z,22.83
2022-08-01T12:09:29.266Z,22.79
2022-08-01T12:10:49.578Z,22.83
2022-08-01T12:11:51.785Z,22.83
2022-08-01T12:12:56.626Z,22.82
2022-08-01T12:13:59.316Z,22.83
2022-08-01T12:15:03.599Z,22.84
2022-08-01T12:16:08.170Z,22.86
2022-08-01T12:17:11.407Z,22.89
2022-08-01T12:18:14.825Z,22.92
2022-08-01T12:19:20.963Z,22.94
2022-08-01T12:20:24.994Z,22.94
2022-08-01T12:21:27.225Z,22.93
2022-08-01T12:22:34.649Z,22.92
2022-08-01T12:23:37.810Z,22.91
2022-08-01T12:24:42.490Z,22.91
2022-08-01T12:25:45.841Z,22.90
2022-08-01T12:26:47.841Z,22.91
2022-08-01T12:27:55.768Z,22.90
2022-08-01T12:28:58.492Z,22.88
2022-08-01T12:30:02.913Z,22.85
2022-08-01T12:31:05.094Z,22.83
2022-08-01T12:32:27.954Z,22.86
2022-08-01T12:33:38.931Z,22.90
2022-08-01T12:34:41.151Z,22.92
2022-08-01T12:35:44.219Z,22.94
2022-08-01T12:36:47.419Z,22.95
2022-08-01T12:37:53.122Z,22.96
2022-08-01T12:38:55.506Z,22.95
2022-08-01T12:39:59.015Z,22.95
2022-08-01T12:41:02.557Z,22.94
2022-08-01T12:42:07.936Z,22.94
2022-08-01T12:43:15.853Z,22.94
2022-08-01T12:44:31.533Z,22.98
2022-08-01T12:45:37.009Z,23.00
2022-08-01T12:46:44.082Z,23.01
2022-08-01T12:47:48.993Z,23.04
2022-08-01T12:48:51.297Z,23.04
2022-08-01T12:49:54.834Z,23.05
2022-08-01T12:50:59.296Z,23.06
2022-08-01T12:52:02.676Z,23.06
2022-08-01T12:53:07.737Z,23.06
2022-08-01T12:54:11.146Z,23.07
2022-08-01T12:55:18.376Z,23.07
2022-08-01T12:56:32.730Z,23.06
2022-08-01T12:57:37.766Z,23.06
2022-08-01T12:58:41.205Z,23.04
2022-08-01T12:59:43.279Z,23.02
2022-08-01T13:00:48.011Z,23.03
2022-08-01T13:01:50.377Z,23.03
2022-08-01T13:03:04.412Z,23.02
2022-08-01T13:04:06.584Z,23.03
2022-08-01T13:05:11.260Z,23.05
2022-08-01T13:06:16.845Z,23.08
2022-08-01T13:07:20.068Z,23.12
2022-08-01T13:08:25.815Z,23.19
2022-08-01T13:09:27.853Z,23.28
2022-08-01T13:10:32.246Z,23.37
2022-08-01T13:11:35.320Z,23.46
2022-08-01T13:12:38.000Z,23.53
2022-08-01T13:13:43.430Z,23.59
2022-08-01T13:14:45.440Z,23.67
2022-08-01T13:15:48.454Z,23.75
2022-08-01T13:16:57.084Z,23.83
2022-08-01T13:18:02.473Z,23.96
2022-08-01T13:19:04.629Z,24.08
2022-08-01T13:20:08.793Z,24.20
2022-08-01T13:21:16.388Z,24.32
2022-08-01T13:22:18.451Z,24.38
2022-08-01T13:24:03.006Z,24.42
2022-08-01T13:24:46.517Z,24.42
2022-08-01T13:25:53.564Z,24.42
2022-08-01T13:26:59.778Z,24.45
2022-08-01T13:28:19.235Z,24.49
2022-08-01T13:29:24.329Z,24.51
2022-08-01T13:30:26.419Z,24.54
2022-08-01T13:31:34.460Z,24.55
2022-08-01T13:32:36.605Z,24.58
2022-08-01T13:33:45.647Z,24.59
2022-08-01T13:35:02.170Z,24.56
2022-08-01T13:36:06.085Z,24.54
2022-08-01T13:37:08.813Z,24.51
2022-08-01T13:38:11.791Z,24.48
2022-08-01T13:39:32.348Z,24.47
2022-08-01T13:40:37.422Z,24.48
2022-08-01T13:41:39.478Z,24.54
2022-08-01T13:42:42.551Z,24.62
2022-08-01T13:43:58.717Z,24.72
2022-08-01T13:45:03.703Z,24.80
2022-08-01T13:46:07.380Z,24.84
2022-08-01T13:47:15.816Z,24.88
2022-08-01T13:48:19.821Z,24.87
2022-08-01T13:49:23.119Z,24.87
2022-08-01T13:50:25.525Z,24.88
2022-08-01T13:51:28.635Z,24.89
2022-08-01T13:52:32.337Z,24.88
2022-08-01T13:53:34.569Z,24.87
2022-08-01T13:54:38.088Z,24.89
2022-08-01T13:55:41.587Z,24.93
2022-08-01T13:56:44.789Z,24.95
2022-08-01T13:57:46.810Z,25.03
2022-08-01T13:58:49.829Z,25.06
2022-08-01T13:59:52.590Z,25.10
2022-08-01T14:00:57.032Z,25.15
2022-08-01T14:01:59.195Z,25.20
2022-08-01T14:03:02.299Z,25.25
2022-08-01T14:04:06.184Z,25.28
2022-08-01T14:05:09.422Z,25.27
2022-08-01T14:06:11.779Z,25.26
2022-08-01T14:07:15.327Z,25.27
2022-08-01T14:08:17.582Z,25.28
2022-08-01T14:09:24.678Z,25.28
2022-08-01T14:10:28.034Z,25.27
2022-08-01T14:11:37.375Z,25.28
2022-08-01T14:12:40.807Z,25.31